Time;durP1;ratioP1;P1;durP2;ratioP2;P2;SDS_P1;SDS_P2;PMS_P1;PMS_P2;Temp;Humidity;BMP_temperature;BMP_pressure;BME280_temperature;BME280_humidity;BME280_pressure;Samples;Min_cycle;Max_cycle;Signal;HPM_P1;HPM_P2
2022/10/28 00:01:09;;;;;;;;;;;16.40;99.90;;;;;;4994118;28;19913;-76
2022/10/28 00:03:39;;;;;;;;;;;16.50;99.90;;;;;;4994402;28;20056;-76
2022/10/28 00:06:05;;;;;;;;;;;16.40;99.90;;;;;;4996247;28;19905;-75
2022/10/28 00:08:31;;;;;;;;;;;16.30;99.90;;;;;;4998107;28;20285;-76
2022/10/28 00:11:01;;;;;;;;;;;16.30;99.90;;;;;;4998619;28;19905;-76
2022/10/28 00:13:26;;;;;;;;;;;16.30;99.90;;;;;;4998039;28;19910;-76
2022/10/28 00:15:52;;;;;;;;;;;16.30;99.90;;;;;;4997969;28;20285;-75
2022/10/28 00:18:17;;;;;;;;;;;16.30;99.90;;;;;;4997958;28;19905;-75
2022/10/28 00:20:43;;;;;;;;;;;16.30;99.90;;;;;;4998432;28;19906;-75
2022/10/28 00:23:08;;;;;;;;;;;16.30;99.90;;;;;;4997805;28;19912;-75
2022/10/28 00:25:34;;;;;;;;;;;16.30;99.90;;;;;;4997656;28;19925;-76
2022/10/28 00:27:59;;;;;;;;;;;16.20;99.90;;;;;;4998316;28;19906;-75
2022/10/28 00:30:25;;;;;;;;;;;16.20;99.90;;;;;;4998031;28;19932;-75
2022/10/28 00:32:51;;;;;;;;;;;16.20;99.90;;;;;;4997692;28;20000;-76
2022/10/28 00:35:16;;;;;;;;;;;16.20;99.90;;;;;;4997674;28;20329;-76
2022/10/28 00:37:42;;;;;;;;;;;16.20;99.90;;;;;;4997608;28;19906;-75
2022/10/28 00:40:07;;;;;;;;;;;16.20;99.90;;;;;;4997577;28;19912;-74
2022/10/28 00:42:33;;;;;;;;;;;16.20;99.90;;;;;;4997533;28;19933;-75
2022/10/28 00:44:59;;;;;;;;;;;16.20;99.90;;;;;;4997696;28;19928;-75
2022/10/28 00:47:30;;;;;;;;;;;16.30;99.90;;;;;;4997392;28;20000;-76
2022/10/28 00:50:00;;;;;;;;;;;16.30;99.90;;;;;;4997372;28;19906;-76
2022/10/28 00:52:28;;;;;;;;;;;16.30;99.90;;;;;;4997306;28;19909;-76
2022/10/28 00:54:54;;;;;;;;;;;16.30;99.90;;;;;;4997292;28;20386;-76
2022/10/28 00:57:23;;;;;;;;;;;16.30;99.90;;;;;;4997814;28;19912;-75
2022/10/28 00:59:51;;;;;;;;;;;16.30;99.90;;;;;;4997220;28;20385;-74
2022/10/28 01:02:18;;;;;;;;;;;16.30;99.90;;;;;;4997153;28;19912;-75
2022/10/28 01:04:45;;;;;;;;;;;16.30;99.90;;;;;;4979583;28;20341;-75
2022/10/28 01:07:10;;;;;;;;;;;16.40;99.90;;;;;;4997314;28;19960;-75
2022/10/28 01:09:37;;;;;;;;;;;16.30;99.90;;;;;;4997007;28;19906;-76
2022/10/28 01:12:15;;;;;;;;;;;16.30;99.90;;;;;;4996955;28;19953;-74
2022/10/28 01:15:18;;;;;;;;;;;16.30;99.90;;;;;;4997205;28;20408;-75
2022/10/28 01:18:07;;;;;;;;;;;16.20;99.90;;;;;;4917932;29;19911;-75
2022/10/28 01:20:38;;;;;;;;;;;16.20;99.90;;;;;;4918489;29;19907;-76
2022/10/28 01:23:18;;;;;;;;;;;16.30;99.90;;;;;;4969667;28;19917;-75
2022/10/28 01:26:02;;;;;;;;;;;16.30;99.90;;;;;;4996428;28;19917;-75
2022/10/28 01:28:28;;;;;;;;;;;16.20;99.90;;;;;;4997181;28;20369;-73
2022/10/28 01:31:12;;;;;;;;;;;16.20;99.90;;;;;;4997164;28;20063;-74
2022/10/28 01:33:41;;;;;;;;;;;16.20;99.90;;;;;;4996864;28;19937;-75
2022/10/28 01:36:14;;;;;;;;;;;16.20;99.90;;;;;;4996830;28;19906;-75
2022/10/28 01:38:39;;;;;;;;;;;16.20;99.90;;;;;;4996450;28;19994;-74
2022/10/28 01:41:05;;;;;;;;;;;16.20;99.90;;;;;;4996419;28;19966;-75
2022/10/28 01:43:30;;;;;;;;;;;16.20;99.90;;;;;;4996383;28;19912;-74
2022/10/28 01:45:58;;;;;;;;;;;16.10;99.90;;;;;;4996835;28;20273;-77
2022/10/28 01:48:44;;;;;;;;;;;16.20;99.90;;;;;;4996612;28;20285;-76
2022/10/28 01:51:12;;;;;;;;;;;16.10;99.90;;;;;;4995760;28;19906;-74
2022/10/28 01:53:40;;;;;;;;;;;16.20;99.90;;;;;;4996523;28;19996;-74
2022/10/28 01:56:08;;;;;;;;;;;16.10;99.90;;;;;;4996153;28;19910;-75
2022/10/28 01:58:35;;;;;;;;;;;16.10;99.90;;;;;;4996177;28;19910;-74
2022/10/28 02:01:03;;;;;;;;;;;16.10;99.90;;;;;;4995964;28;19905;-74
2022/10/28 02:03:29;;;;;;;;;;;16.10;99.90;;;;;;4996042;28;20263;-75
2022/10/28 02:05:56;;;;;;;;;;;16.10;99.90;;;;;;4996188;28;20008;-75
2022/10/28 02:08:24;;;;;;;;;;;16.10;99.90;;;;;;4995941;28;19933;-75
2022/10/28 02:10:58;;;;;;;;;;;16.10;99.90;;;;;;4995914;28;19933;-75
2022/10/28 02:13:27;;;;;;;;;;;16.20;99.90;;;;;;4996102;28;20428;-74
2022/10/28 02:16:12;;;;;;;;;;;16.10;99.90;;;;;;4995792;28;20328;-75
2022/10/28 02:19:09;;;;;;;;;;;16.20;99.90;;;;;;4996030;28;19960;-75
2022/10/28 02:21:55;;;;;;;;;;;16.10;99.90;;;;;;4952480;28;19960;-76
2022/10/28 02:24:35;;;;;;;;;;;16.20;99.90;;;;;;4955418;28;19983;-74
2022/10/28 02:27:04;;;;;;;;;;;16.20;99.90;;;;;;4996189;28;19910;-76
2022/10/28 02:29:34;;;;;;;;;;;16.20;99.90;;;;;;4995378;28;19906;-76
2022/10/28 02:32:10;;;;;;;;;;;16.20;99.90;;;;;;4978612;28;20342;-75
2022/10/28 02:34:38;;;;;;;;;;;16.20;99.90;;;;;;4995891;28;20265;-74
2022/10/28 02:37:07;;;;;;;;;;;16.20;99.90;;;;;;4995358;28;19955;-76
2022/10/28 02:39:35;;;;;;;;;;;16.20;99.90;;;;;;4995914;28;20358;-74
2022/10/28 02:42:07;;;;;;;;;;;16.20;99.90;;;;;;4995261;28;19909;-74
2022/10/28 02:44:37;;;;;;;;;;;16.20;99.90;;;;;;4995156;28;19913;-76
2022/10/28 02:47:06;;;;;;;;;;;16.20;99.90;;;;;;4995473;28;19905;-75
2022/10/28 02:49:33;;;;;;;;;;;16.20;99.90;;;;;;4995156;28;19928;-74
2022/10/28 02:52:01;;;;;;;;;;;16.20;99.90;;;;;;4995645;28;19905;-75
2022/10/28 02:54:29;;;;;;;;;;;16.20;99.90;;;;;;4995045;28;19905;-75
2022/10/28 02:57:02;;;;;;;;;;;16.20;99.90;;;;;;4995542;28;19906;-75
2022/10/28 02:59:28;;;;;;;;;;;16.20;99.90;;;;;;4994948;28;19910;-75
2022/10/28 03:01:53;;;;;;;;;;;16.20;99.90;;;;;;4995178;28;20011;-75
2022/10/28 03:04:19;;;;;;;;;;;16.20;99.90;;;;;;4994823;28;19945;-74
2022/10/28 03:06:44;;;;;;;;;;;16.20;99.90;;;;;;4994884;28;19913;-75
2022/10/28 03:09:10;;;;;;;;;;;16.20;99.90;;;;;;4994776;28;19906;-74
2022/10/28 03:11:35;;;;;;;;;;;16.30;99.90;;;;;;4994748;28;19905;-75
2022/10/28 03:14:01;;;;;;;;;;;16.30;99.90;;;;;;4994996;28;20278;-75
2022/10/28 03:16:27;;;;;;;;;;;16.30;99.90;;;;;;4994542;28;19913;-75
2022/10/28 03:18:52;;;;;;;;;;;16.30;99.90;;;;;;4994647;28;19988;-75
2022/10/28 03:21:18;;;;;;;;;;;16.30;99.90;;;;;;4995174;28;19905;-75
2022/10/28 03:23:43;;;;;;;;;;;16.30;99.90;;;;;;4994499;28;19909;-75
2022/10/28 03:26:09;;;;;;;;;;;16.30;99.90;;;;;;4994469;28;19914;-75
2022/10/28 03:28:34;;;;;;;;;;;16.40;99.90;;;;;;4995085;28;19912;-74
2022/10/28 03:31:00;;;;;;;;;;;16.40;99.90;;;;;;4994779;28;19913;-75
2022/10/28 03:33:25;;;;;;;;;;;16.40;99.90;;;;;;4994432;28;19996;-76
2022/10/28 03:35:51;;;;;;;;;;;16.40;99.90;;;;;;4994429;28;19970;-75
2022/10/28 03:38:16;;;;;;;;;;;16.50;99.90;;;;;;4994426;28;19976;-75
2022/10/28 03:40:42;;;;;;;;;;;16.50;99.90;;;;;;4994658;28;20477;-74
2022/10/28 03:43:07;;;;;;;;;;;16.50;99.90;;;;;;4994664;28;19956;-74
2022/10/28 03:45:33;;;;;;;;;;;16.50;99.90;;;;;;4994297;28;20004;-75
2022/10/28 03:47:58;;;;;;;;;;;16.50;99.90;;;;;;4994621;28;19968;-74
2022/10/28 03:50:24;;;;;;;;;;;16.50;99.90;;;;;;4994286;28;19909;-75
2022/10/28 03:52:49;;;;;;;;;;;16.50;99.90;;;;;;4994831;28;20350;-74
2022/10/28 03:55:15;;;;;;;;;;;16.50;99.90;;;;;;4994229;28;20373;-75
2022/10/28 03:57:41;;;;;;;;;;;16.50;99.90;;;;;;4994236;28;20286;-74
2022/10/28 04:00:07;;;;;;;;;;;16.50;99.90;;;;;;4976741;28;19906;-75
2022/10/28 04:02:32;;;;;;;;;;;16.50;99.90;;;;;;4994732;28;19913;-75
2022/10/28 04:04:58;;;;;;;;;;;16.50;99.90;;;;;;4994337;28;20277;-76
2022/10/28 04:07:23;;;;;;;;;;;16.60;99.90;;;;;;4994360;28;19913;-74
2022/10/28 04:09:50;;;;;;;;;;;16.50;99.90;;;;;;4994131;28;19952;-74
2022/10/28 04:12:16;;;;;;;;;;;16.50;99.90;;;;;;4994419;28;20354;-76
2022/10/28 04:14:41;;;;;;;;;;;16.40;99.90;;;;;;4994083;28;19945;-74
2022/10/28 04:17:07;;;;;;;;;;;16.40;99.90;;;;;;4994636;28;19912;-74
2022/10/28 04:19:32;;;;;;;;;;;16.40;99.90;;;;;;4994065;28;19953;-75
2022/10/28 04:21:58;;;;;;;;;;;16.40;99.90;;;;;;4994199;28;19945;-75
2022/10/28 04:24:23;;;;;;;;;;;16.30;99.90;;;;;;4993696;28;20456;-75
2022/10/28 04:26:49;;;;;;;;;;;16.30;99.90;;;;;;4994581;28;19906;-76
2022/10/28 04:29:14;;;;;;;;;;;16.30;99.90;;;;;;4994755;28;19906;-74
2022/10/28 04:31:40;;;;;;;;;;;16.10;99.90;;;;;;4993974;28;19906;-75
2022/10/28 04:34:05;;;;;;;;;;;16.20;99.90;;;;;;4993913;28;19906;-76
2022/10/28 04:36:31;;;;;;;;;;;16.20;99.90;;;;;;4993951;28;19913;-76
2022/10/28 04:38:56;;;;;;;;;;;16.10;99.90;;;;;;4994205;28;19905;-76
2022/10/28 04:41:22;;;;;;;;;;;16.10;99.90;;;;;;4993891;28;19945;-75
2022/10/28 04:43:47;;;;;;;;;;;16.00;99.90;;;;;;4993795;28;19996;-76
2022/10/28 04:46:13;;;;;;;;;;;16.10;99.90;;;;;;4994071;28;19912;-76
2022/10/28 04:48:38;;;;;;;;;;;16.00;99.90;;;;;;4993802;28;19910;-77
2022/10/28 04:51:04;;;;;;;;;;;16.00;99.90;;;;;;4994195;28;19956;-76
2022/10/28 04:53:29;;;;;;;;;;;16.00;99.90;;;;;;4997354;28;19912;-76
2022/10/28 04:55:56;;;;;;;;;;;15.90;99.90;;;;;;4997845;28;19905;-74
2022/10/28 04:58:21;;;;;;;;;;;15.90;99.90;;;;;;4997252;28;19913;-75
2022/10/28 05:00:47;;;;;;;;;;;15.90;99.90;;;;;;4997501;28;19906;-76
2022/10/28 05:03:12;;;;;;;;;;;15.90;99.90;;;;;;4997169;28;20363;-76
2022/10/28 05:05:39;;;;;;;;;;;15.90;99.90;;;;;;4997002;28;19909;-76
2022/10/28 05:08:05;;;;;;;;;;;16.00;99.90;;;;;;4997351;28;19949;-76
2022/10/28 05:10:30;;;;;;;;;;;15.90;99.90;;;;;;4997030;28;19906;-76
2022/10/28 05:12:56;;;;;;;;;;;16.00;99.90;;;;;;4997250;28;19910;-76
2022/10/28 05:15:22;;;;;;;;;;;15.90;99.90;;;;;;4996863;28;19952;-76
2022/10/28 05:17:47;;;;;;;;;;;15.90;99.90;;;;;;4997174;28;19906;-75
2022/10/28 05:20:15;;;;;;;;;;;15.90;99.90;;;;;;4996763;28;19945;-76
2022/10/28 05:22:53;;;;;;;;;;;15.80;99.90;;;;;;4996717;28;20021;-76
2022/10/28 05:25:19;;;;;;;;;;;15.80;99.90;;;;;;4996796;28;19917;-75
2022/10/28 05:27:45;;;;;;;;;;;15.80;99.90;;;;;;4997273;28;19996;-76
2022/10/28 05:30:11;;;;;;;;;;;15.90;99.90;;;;;;4996947;28;19909;-76
2022/10/28 05:32:37;;;;;;;;;;;15.80;99.90;;;;;;4996591;28;19906;-74
2022/10/28 05:35:02;;;;;;;;;;;15.80;99.90;;;;;;4996599;28;19905;-76
2022/10/28 05:37:28;;;;;;;;;;;15.90;99.90;;;;;;4996610;28;19948;-76
2022/10/28 05:39:54;;;;;;;;;;;15.90;99.90;;;;;;4996765;28;19910;-76
2022/10/28 05:42:19;;;;;;;;;;;15.90;99.90;;;;;;4995167;28;19906;-74
2022/10/28 05:44:45;;;;;;;;;;;15.90;99.90;;;;;;4995075;28;19913;-76
2022/10/28 05:47:10;;;;;;;;;;;15.90;99.90;;;;;;4996645;28;20309;-76
2022/10/28 05:49:36;;;;;;;;;;;15.90;99.90;;;;;;4978900;28;19960;-74
2022/10/28 05:52:01;;;;;;;;;;;15.90;99.90;;;;;;4996820;28;20370;-76
2022/10/28 05:54:27;;;;;;;;;;;15.90;99.90;;;;;;4996208;28;19912;-76
2022/10/28 05:56:52;;;;;;;;;;;15.90;99.90;;;;;;4996459;28;19906;-76
2022/10/28 05:59:18;;;;;;;;;;;15.90;99.90;;;;;;4996140;28;20386;-74
2022/10/28 06:01:43;;;;;;;;;;;15.90;99.90;;;;;;4996129;28;19956;-76
2022/10/28 06:04:09;;;;;;;;;;;15.90;99.90;;;;;;4995485;28;20362;-75
2022/10/28 06:06:34;;;;;;;;;;;15.90;99.90;;;;;;4996011;28;19996;-76
2022/10/28 06:09:00;;;;;;;;;;;15.90;99.90;;;;;;4995956;28;19905;-74
2022/10/28 06:11:25;;;;;;;;;;;15.90;99.90;;;;;;4996162;28;20395;-75
2022/10/28 06:13:51;;;;;;;;;;;15.90;99.90;;;;;;4995823;28;20346;-76
2022/10/28 06:16:16;;;;;;;;;;;15.90;99.90;;;;;;4996059;28;19912;-75
2022/10/28 06:18:42;;;;;;;;;;;15.80;99.90;;;;;;4995733;28;19906;-76
2022/10/28 06:21:07;;;;;;;;;;;15.80;99.90;;;;;;4995707;28;19928;-74
2022/10/28 06:23:33;;;;;;;;;;;15.80;99.90;;;;;;4995909;28;19906;-74
2022/10/28 06:26:02;;;;;;;;;;;15.80;99.90;;;;;;4995357;28;19914;-75
2022/10/28 06:28:28;;;;;;;;;;;15.80;99.90;;;;;;4996613;28;19905;-75
2022/10/28 06:30:53;;;;;;;;;;;15.80;99.90;;;;;;4995541;28;19906;-76
2022/10/28 06:33:19;;;;;;;;;;;15.80;99.90;;;;;;4995994;28;19910;-74
2022/10/28 06:35:44;;;;;;;;;;;15.90;99.90;;;;;;4995447;28;19913;-75
2022/10/28 06:38:10;;;;;;;;;;;15.90;99.90;;;;;;4995668;28;20003;-74
2022/10/28 06:40:35;;;;;;;;;;;16.00;99.90;;;;;;4995343;28;19961;-76
2022/10/28 06:43:05;;;;;;;;;;;16.00;99.90;;;;;;4995284;28;19968;-76
2022/10/28 06:45:32;;;;;;;;;;;16.10;99.90;;;;;;4995225;28;20428;-75
2022/10/28 06:47:58;;;;;;;;;;;16.10;99.90;;;;;;4995187;28;19906;-75
2022/10/28 06:50:24;;;;;;;;;;;16.10;99.90;;;;;;4995447;28;19949;-76
2022/10/28 06:52:50;;;;;;;;;;;16.20;99.90;;;;;;4995104;28;20342;-75
2022/10/28 06:55:15;;;;;;;;;;;16.20;99.90;;;;;;4995374;28;19997;-76
2022/10/28 06:57:40;;;;;;;;;;;16.20;99.90;;;;;;4995263;28;20413;-74
2022/10/28 07:00:06;;;;;;;;;;;16.20;99.90;;;;;;4995537;28;19906;-75
2022/10/28 07:02:32;;;;;;;;;;;16.20;99.90;;;;;;4994906;28;19992;-75
2022/10/28 07:04:57;;;;;;;;;;;16.30;99.90;;;;;;4994828;28;19917;-76
2022/10/28 07:07:23;;;;;;;;;;;16.30;99.90;;;;;;4994899;28;19905;-76
2022/10/28 07:09:48;;;;;;;;;;;16.30;99.90;;;;;;4995135;28;19910;-74
2022/10/28 07:12:14;;;;;;;;;;;16.30;99.90;;;;;;4994766;28;20274;-75
2022/10/28 07:14:39;;;;;;;;;;;16.40;99.90;;;;;;4995089;28;19917;-76
2022/10/28 07:17:05;;;;;;;;;;;16.40;99.90;;;;;;4994726;28;19906;-75
2022/10/28 07:19:30;;;;;;;;;;;16.50;99.90;;;;;;4994729;28;19906;-75
2022/10/28 07:21:56;;;;;;;;;;;16.50;99.90;;;;;;4994629;28;19906;-75
2022/10/28 07:24:21;;;;;;;;;;;16.50;99.90;;;;;;4994566;28;19909;-76
2022/10/28 07:26:48;;;;;;;;;;;16.50;99.90;;;;;;4993088;28;20365;-75
2022/10/28 07:29:14;;;;;;;;;;;16.50;99.90;;;;;;4977656;28;19952;-75
2022/10/28 07:31:39;;;;;;;;;;;16.60;99.90;;;;;;4994765;28;20374;-75
2022/10/28 07:34:05;;;;;;;;;;;16.60;99.90;;;;;;4994474;28;19956;-75
2022/10/28 07:36:30;;;;;;;;;;;16.70;99.90;;;;;;4994777;28;19953;-75
2022/10/28 07:38:56;;;;;;;;;;;16.70;99.90;;;;;;4976994;28;19905;-75
2022/10/28 07:41:22;;;;;;;;;;;16.70;99.90;;;;;;4994960;28;19905;-76
2022/10/28 07:43:47;;;;;;;;;;;16.70;99.90;;;;;;4994337;28;19906;-76
2022/10/28 07:46:13;;;;;;;;;;;16.70;99.90;;;;;;4994264;28;19920;-75
2022/10/28 07:48:39;;;;;;;;;;;16.70;99.90;;;;;;4994455;28;19909;-75
2022/10/28 07:51:05;;;;;;;;;;;16.70;99.90;;;;;;4994539;28;19910;-76
2022/10/28 07:53:31;;;;;;;;;;;16.70;99.90;;;;;;4994142;28;19906;-75
2022/10/28 07:56:01;;;;;;;;;;;16.70;99.90;;;;;;4994282;28;20321;-75
2022/10/28 07:58:27;;;;;;;;;;;16.80;99.90;;;;;;4994768;28;19906;-75
2022/10/28 08:00:53;;;;;;;;;;;16.80;99.90;;;;;;4994261;28;20320;-76
2022/10/28 08:03:18;;;;;;;;;;;16.90;99.90;;;;;;4994237;28;20321;-76
2022/10/28 08:05:44;;;;;;;;;;;17.00;99.90;;;;;;4994414;28;19920;-75
2022/10/28 08:08:09;;;;;;;;;;;17.00;99.90;;;;;;4994430;28;19913;-75
2022/10/28 08:10:35;;;;;;;;;;;17.10;99.90;;;;;;4994424;28;19906;-75
2022/10/28 08:13:01;;;;;;;;;;;17.10;99.90;;;;;;4994181;28;19971;-75
2022/10/28 08:15:27;;;;;;;;;;;17.10;99.90;;;;;;4994403;28;20377;-76
2022/10/28 08:17:53;;;;;;;;;;;17.10;99.90;;;;;;4992713;28;20362;-75
2022/10/28 08:20:18;;;;;;;;;;;17.10;99.90;;;;;;4994078;28;19933;-76
2022/10/28 08:22:44;;;;;;;;;;;17.20;99.90;;;;;;4994500;28;20369;-75
2022/10/28 08:25:09;;;;;;;;;;;17.20;99.90;;;;;;4993732;28;19964;-76
2022/10/28 08:27:35;;;;;;;;;;;17.20;99.90;;;;;;4996832;28;19906;-76
2022/10/28 08:30:00;;;;;;;;;;;17.20;99.90;;;;;;4997075;28;19906;-76
2022/10/28 08:32:26;;;;;;;;;;;17.20;99.90;;;;;;4997992;28;20004;-75
2022/10/28 08:34:51;;;;;;;;;;;17.20;99.90;;;;;;4997725;28;19905;-76
2022/10/28 08:37:17;;;;;;;;;;;17.30;99.90;;;;;;4997955;28;19905;-75
2022/10/28 08:39:43;;;;;;;;;;;17.30;99.90;;;;;;4997584;28;20386;-75
2022/10/28 08:42:27;;;;;;;;;;;17.40;99.90;;;;;;4998114;28;19906;-75
2022/10/28 08:45:03;;;;;;;;;;;17.40;99.90;;;;;;4997426;28;19937;-76
2022/10/28 08:47:28;;;;;;;;;;;17.40;99.90;;;;;;4997461;28;19906;-75
2022/10/28 08:49:55;;;;;;;;;;;17.40;99.90;;;;;;4997405;28;19916;-75
2022/10/28 08:52:26;;;;;;;;;;;17.40;99.90;;;;;;4997675;28;20365;-76
2022/10/28 08:54:54;;;;;;;;;;;17.60;99.90;;;;;;4997357;28;19913;-76
2022/10/28 08:57:20;;;;;;;;;;;17.70;99.90;;;;;;4997616;28;19909;-78
2022/10/28 08:59:49;;;;;;;;;;;17.90;99.90;;;;;;4997111;28;19905;-76
2022/10/28 09:02:22;;;;;;;;;;;18.00;99.90;;;;;;4997585;28;19913;-76
2022/10/28 09:05:10;;;;;;;;;;;18.10;99.90;;;;;;4997104;28;19924;-75
2022/10/28 09:07:36;;;;;;;;;;;18.20;99.90;;;;;;4987086;28;19905;-76
2022/10/28 09:10:03;;;;;;;;;;;18.30;99.90;;;;;;4997093;28;19989;-76
2022/10/28 09:12:37;;;;;;;;;;;18.30;99.90;;;;;;4997004;28;20018;-76
2022/10/28 09:15:02;;;;;;;;;;;18.50;99.90;;;;;;4997527;28;19996;-74
2022/10/28 09:17:28;;;;;;;;;;;18.70;99.90;;;;;;4996937;28;19937;-74
2022/10/28 09:20:09;;;;;;;;;;;18.90;99.90;;;;;;4997234;28;19909;-74
2022/10/28 09:22:55;;;;;;;;;;;19.00;99.90;;;;;;4979274;28;20389;-75
2022/10/28 09:25:22;;;;;;;;;;;19.00;99.90;;;;;;4982734;28;19965;-75
2022/10/28 09:28:03;;;;;;;;;;;19.00;99.90;;;;;;4996719;28;19905;-75
2022/10/28 09:30:38;;;;;;;;;;;19.00;99.90;;;;;;4997182;28;19905;-74
2022/10/28 09:33:06;;;;;;;;;;;18.90;99.90;;;;;;4996881;28;19952;-75
2022/10/28 09:35:42;;;;;;;;;;;18.90;99.90;;;;;;4979064;28;20325;-75
2022/10/28 09:38:13;;;;;;;;;;;19.30;99.90;;;;;;4996974;28;19941;-76
2022/10/28 09:40:41;;;;;;;;;;;19.70;99.90;;;;;;4996512;28;19906;-77
2022/10/28 09:43:15;;;;;;;;;;;19.80;99.90;;;;;;4978966;28;20366;-76
2022/10/28 09:45:43;;;;;;;;;;;19.80;99.90;;;;;;4996603;28;20482;-75
2022/10/28 09:48:28;;;;;;;;;;;19.40;99.90;;;;;;4996333;28;20388;-75
2022/10/28 09:50:55;;;;;;;;;;;19.20;99.90;;;;;;4996913;28;19928;-76
2022/10/28 09:53:33;;;;;;;;;;;19.20;99.90;;;;;;4996240;28;19956;-75
2022/10/28 09:55:58;;;;;;;;;;;19.20;99.90;;;;;;4996509;28;20281;-75
2022/10/28 09:58:24;;;;;;;;;;;19.10;99.90;;;;;;4996188;28;19996;-75
2022/10/28 10:00:49;;;;;;;;;;;19.10;99.90;;;;;;4996450;28;20400;-74
2022/10/28 10:03:16;;;;;;;;;;;19.00;99.90;;;;;;4996110;28;20349;-75
2022/10/28 10:05:43;;;;;;;;;;;19.10;99.90;;;;;;4996248;28;19910;-75
2022/10/28 10:08:14;;;;;;;;;;;19.20;99.90;;;;;;4995954;28;19910;-75
2022/10/28 10:10:45;;;;;;;;;;;19.10;99.90;;;;;;4996275;28;20325;-74
2022/10/28 10:13:12;;;;;;;;;;;19.10;99.90;;;;;;4995870;28;19906;-76
2022/10/28 10:15:41;;;;;;;;;;;19.00;99.90;;;;;;4995820;28;20276;-75
2022/10/28 10:18:12;;;;;;;;;;;19.00;99.90;;;;;;4996039;28;19913;-74
2022/10/28 10:21:10;;;;;;;;;;;18.90;99.90;;;;;;4996113;28;19913;-74
2022/10/28 10:23:36;;;;;;;;;;;18.90;99.90;;;;;;4952677;28;19906;-77
2022/10/28 10:26:06;;;;;;;;;;;18.90;99.90;;;;;;4995351;28;19914;-77
2022/10/28 10:28:36;;;;;;;;;;;18.90;99.90;;;;;;4996425;28;19913;-76
2022/10/28 10:31:04;;;;;;;;;;;18.90;99.90;;;;;;4995531;28;19912;-75
2022/10/28 10:33:29;;;;;;;;;;;18.80;99.90;;;;;;4995731;28;19912;-76
2022/10/28 10:35:57;;;;;;;;;;;18.80;99.90;;;;;;4995444;28;20000;-74
2022/10/28 10:38:22;;;;;;;;;;;18.80;99.90;;;;;;4977936;28;20373;-75
2022/10/28 10:40:49;;;;;;;;;;;18.80;99.90;;;;;;4995374;28;19997;-75
2022/10/28 10:43:31;;;;;;;;;;;18.80;99.90;;;;;;4977844;28;19960;-76
2022/10/28 10:46:16;;;;;;;;;;;19.00;99.90;;;;;;4995830;28;19941;-76
2022/10/28 10:48:42;;;;;;;;;;;19.10;99.90;;;;;;4994949;28;19909;-75
2022/10/28 10:51:20;;;;;;;;;;;19.30;99.90;;;;;;4994596;28;19952;-76
2022/10/28 10:53:50;;;;;;;;;;;19.50;99.90;;;;;;4977690;28;20353;-75
2022/10/28 10:56:26;;;;;;;;;;;19.50;99.90;;;;;;4995715;28;20001;-75
2022/10/28 10:58:53;;;;;;;;;;;19.50;99.90;;;;;;4977791;28;20347;-75
2022/10/28 11:01:21;;;;;;;;;;;19.50;99.90;;;;;;4995038;28;19912;-75
2022/10/28 11:03:48;;;;;;;;;;;19.50;99.90;;;;;;4995479;28;19906;-75
2022/10/28 11:06:19;;;;;;;;;;;19.60;99.90;;;;;;4977378;28;20296;-75
2022/10/28 11:08:44;;;;;;;;;;;19.50;99.90;;;;;;4995444;28;19909;-75
2022/10/28 11:11:11;;;;;;;;;;;19.70;99.90;;;;;;4994851;28;19913;-75
2022/10/28 11:13:38;;;;;;;;;;;19.80;99.90;;;;;;4995395;28;19906;-77
2022/10/28 11:16:05;;;;;;;;;;;19.90;99.90;;;;;;4995082;28;19909;-74
2022/10/28 11:18:41;;;;;;;;;;;19.80;99.90;;;;;;4977256;28;20363;-75
2022/10/28 11:21:32;;;;;;;;;;;19.90;99.90;;;;;;4994944;28;19956;-77
2022/10/28 11:24:09;;;;;;;;;;;20.10;99.90;;;;;;4964429;28;19920;-76
2022/10/28 11:26:39;;;;;;;;;;;20.10;99.90;;;;;;4994178;28;19913;-75
2022/10/28 11:29:08;;;;;;;;;;;20.10;99.90;;;;;;4995665;28;19983;-75
2022/10/28 11:31:52;;;;;;;;;;;20.10;99.90;;;;;;4994541;28;19906;-74
2022/10/28 11:34:36;;;;;;;;;;;20.10;99.90;;;;;;4977082;28;19913;-76
2022/10/28 11:37:08;;;;;;;;;;;20.00;99.90;;;;;;4994481;28;20449;-75
2022/10/28 11:39:37;;;;;;;;;;;20.00;99.90;;;;;;4995055;28;19905;-74
2022/10/28 11:42:03;;;;;;;;;;;20.00;99.90;;;;;;4994304;28;19906;-75
2022/10/28 11:44:43;;;;;;;;;;;20.00;99.90;;;;;;4994563;28;20009;-77
2022/10/28 11:47:09;;;;;;;;;;;20.00;99.90;;;;;;4994335;28;20322;-74
2022/10/28 11:49:34;;;;;;;;;;;20.10;99.90;;;;;;4976941;28;19910;-76
2022/10/28 11:52:06;;;;;;;;;;;20.10;99.90;;;;;;4994603;28;19913;-74
2022/10/28 11:54:31;;;;;;;;;;;20.10;99.90;;;;;;4994321;28;19945;-75
2022/10/28 11:57:00;;;;;;;;;;;20.10;99.90;;;;;;4994260;28;19913;-76
2022/10/28 11:59:44;;;;;;;;;;;20.10;99.90;;;;;;4994469;28;19906;-75
2022/10/28 12:02:10;;;;;;;;;;;20.10;99.90;;;;;;4978699;28;20379;-76
2022/10/28 12:04:35;;;;;;;;;;;20.10;99.90;;;;;;4998466;28;20011;-75
2022/10/28 12:07:13;;;;;;;;;;;20.10;99.90;;;;;;4998240;28;19906;-75
2022/10/28 12:09:38;;;;;;;;;;;20.20;99.90;;;;;;4998213;28;19913;-75
2022/10/28 12:12:23;;;;;;;;;;;20.20;99.90;;;;;;4998695;28;19992;-75
2022/10/28 12:15:14;;;;;;;;;;;20.20;99.90;;;;;;4998089;28;19905;-76
2022/10/28 12:17:45;;;;;;;;;;;20.30;99.90;;;;;;4977500;28;19928;-76
2022/10/28 12:20:16;;;;;;;;;;;20.20;99.90;;;;;;4997909;28;19957;-76
2022/10/28 12:22:41;;;;;;;;;;;20.20;99.90;;;;;;4998041;28;19906;-75
2022/10/28 12:25:12;;;;;;;;;;;20.20;99.90;;;;;;4998018;28;20428;-75
2022/10/28 12:27:40;;;;;;;;;;;20.20;99.90;;;;;;4980342;28;19913;-76
2022/10/28 12:30:08;;;;;;;;;;;20.20;99.90;;;;;;4998636;28;19913;-76
2022/10/28 12:32:36;;;;;;;;;;;20.10;99.90;;;;;;4997884;28;19956;-75
2022/10/28 12:35:11;;;;;;;;;;;20.20;99.90;;;;;;4997817;28;19913;-75
2022/10/28 12:37:36;;;;;;;;;;;20.20;99.90;;;;;;4998980;28;19928;-76
2022/10/28 12:40:11;;;;;;;;;;;20.30;99.90;;;;;;4997656;28;20432;-75
2022/10/28 12:42:46;;;;;;;;;;;20.30;99.90;;;;;;4979832;28;19906;-75
2022/10/28 12:45:14;;;;;;;;;;;20.30;99.90;;;;;;4998078;28;19913;-75
2022/10/28 12:47:53;;;;;;;;;;;20.20;99.90;;;;;;4998032;28;20444;-76
2022/10/28 12:50:18;;;;;;;;;;;20.30;99.90;;;;;;4997638;28;19906;-74
2022/10/28 12:52:50;;;;;;;;;;;20.30;99.90;;;;;;4997403;28;20000;-74
2022/10/28 12:55:36;;;;;;;;;;;20.30;99.90;;;;;;4979793;28;19906;-76
2022/10/28 12:58:11;;;;;;;;;;;20.50;99.90;;;;;;4997035;28;19906;-76
2022/10/28 13:00:41;;;;;;;;;;;20.50;99.90;;;;;;4997707;28;19906;-75
2022/10/28 13:03:10;;;;;;;;;;;20.50;99.90;;;;;;4997086;28;19906;-75
2022/10/28 13:05:41;;;;;;;;;;;20.50;99.90;;;;;;4997510;28;20000;-74
2022/10/28 13:08:34;;;;;;;;;;;20.50;99.90;;;;;;4997053;28;19957;-76
2022/10/28 13:11:18;;;;;;;;;;;20.40;99.90;;;;;;4997536;28;19929;-75
2022/10/28 13:13:43;;;;;;;;;;;20.30;99.90;;;;;;4996670;28;19913;-74
2022/10/28 13:16:27;;;;;;;;;;;20.20;99.90;;;;;;4979467;28;19905;-74
2022/10/28 13:19:11;;;;;;;;;;;20.10;99.90;;;;;;4996921;28;19913;-74
2022/10/28 13:22:09;;;;;;;;;;;20.00;99.90;;;;;;4997340;28;19932;-75
2022/10/28 13:24:41;;;;;;;;;;;20.10;99.90;;;;;;4953214;28;19945;-74
2022/10/28 13:27:10;;;;;;;;;;;20.20;99.90;;;;;;4997036;28;19952;-75
2022/10/28 13:29:37;;;;;;;;;;;20.20;99.90;;;;;;4997089;28;19906;-76
2022/10/28 13:32:02;;;;;;;;;;;20.10;99.90;;;;;;4979117;28;20262;-76
2022/10/28 13:34:32;;;;;;;;;;;20.10;99.90;;;;;;4996589;28;19992;-75
2022/10/28 13:37:00;;;;;;;;;;;20.10;99.90;;;;;;4996970;28;19905;-75
2022/10/28 13:39:32;;;;;;;;;;;20.00;99.90;;;;;;4978983;28;19905;-75
2022/10/28 13:42:18;;;;;;;;;;;19.90;99.90;;;;;;4996679;28;19905;-75
2022/10/28 13:45:00;;;;;;;;;;;19.80;99.90;;;;;;4996309;28;20004;-75
2022/10/28 13:47:27;;;;;;;;;;;19.80;99.90;;;;;;4996312;28;19928;-75
2022/10/28 13:50:08;;;;;;;;;;;19.80;99.90;;;;;;4996251;28;20001;-75
2022/10/28 13:52:37;;;;;;;;;;;19.90;99.90;;;;;;4996754;28;20270;-75
2022/10/28 13:55:15;;;;;;;;;;;19.90;99.90;;;;;;4996363;28;19921;-74
2022/10/28 13:57:42;;;;;;;;;;;19.80;99.90;;;;;;4996404;28;19957;-75
2022/10/28 14:00:16;;;;;;;;;;;19.80;99.90;;;;;;4996066;28;19906;-76
2022/10/28 14:02:58;;;;;;;;;;;19.80;99.90;;;;;;4996314;28;20281;-75
2022/10/28 14:05:25;;;;;;;;;;;19.90;99.90;;;;;;4995884;28;19914;-77
2022/10/28 14:08:02;;;;;;;;;;;19.90;99.90;;;;;;4995912;28;19953;-75
2022/10/28 14:10:31;;;;;;;;;;;20.00;99.90;;;;;;4996455;28;19933;-75
2022/10/28 14:12:59;;;;;;;;;;;20.00;99.90;;;;;;4995866;28;19928;-75
2022/10/28 14:15:27;;;;;;;;;;;20.10;99.90;;;;;;4995813;28;20393;-76
2022/10/28 14:17:58;;;;;;;;;;;20.10;99.90;;;;;;4995744;28;19912;-75
2022/10/28 14:20:27;;;;;;;;;;;20.20;99.90;;;;;;4996246;28;20342;-75
2022/10/28 14:22:53;;;;;;;;;;;20.10;99.90;;;;;;4995430;28;20427;-74
2022/10/28 14:25:37;;;;;;;;;;;20.10;99.90;;;;;;4994499;28;19918;-75
2022/10/28 14:28:22;;;;;;;;;;;20.10;99.90;;;;;;4995513;28;19956;-74